Time;durP1;ratioP1;P1;durP2;ratioP2;P2;SDS_P1;SDS_P2;PMS_P1;PMS_P2;Temp;Humidity;BMP_temperature;BMP_pressure;BME280_temperature;BME280_humidity;BME280_pressure;Samples;Min_cycle;Max_cycle;Signal;HPM_P1;HPM_P2
2023/09/18 00:01:26;;;;;;;9.08;5.78;;;;;;;19.77;90.22;100689.75;5165047;55;1138857;-75
2023/09/18 00:06:31;;;;;;;8.68;6.97;;;;;;;19.71;89.53;100689.13;5164468;56;1138693;-75
2023/09/18 00:11:38;;;;;;;13.88;6.45;;;;;;;19.62;89.81;100682.94;5185000;55;1138786;-75
2023/09/18 00:16:44;;;;;;;8.70;6.95;;;;;;;19.62;90.28;100675.72;5164332;56;1140892;-75
2023/09/18 00:21:51;;;;;;;11.83;5.77;;;;;;;19.57;90.06;100680.77;5101235;56;1138985;-75
2023/09/18 00:26:57;;;;;;;10.23;6.85;;;;;;;19.46;89.45;100677.09;5027056;56;1141032;-76
2023/09/18 00:32:02;;;;;;;10.28;6.50;;;;;;;19.24;89.95;100681.36;5005398;56;1140812;-75
2023/09/18 00:37:10;;;;;;;11.83;6.62;;;;;;;19.24;90.56;100682.70;4996163;56;1140634;-75
2023/09/18 00:42:17;;;;;;;7.00;5.90;;;;;;;19.25;91.09;100676.30;5021998;57;1140773;-75
2023/09/18 00:47:23;;;;;;;17.70;7.80;;;;;;;19.31;90.83;100675.62;5074952;56;1138736;-74
2023/09/18 00:52:29;;;;;;;9.93;7.67;;;;;;;19.24;90.93;100666.61;5012162;57;1140755;-75
2023/09/18 00:57:35;;;;;;;7.37;6.35;;;;;;;19.18;91.09;100670.47;5098705;56;1138726;-76
2023/09/18 01:02:41;;;;;;;9.15;7.55;;;;;;;19.15;91.62;100674.31;4996184;56;1138692;-77
2023/09/18 01:07:47;;;;;;;20.30;6.87;;;;;;;19.04;90.99;100656.42;4995688;57;1138856;-76
2023/09/18 01:12:58;;;;;;;7.33;6.50;;;;;;;18.83;92.58;100666.31;4994622;56;1140769;-75
2023/09/18 01:18:04;;;;;;;11.00;6.80;;;;;;;18.83;92.58;100666.31;5098773;56;1138872;-75
2023/09/18 01:23:11;;;;;;;11.40;7.55;;;;;;;18.80;92.96;100663.47;5066076;56;1141026;-74
2023/09/18 01:28:16;;;;;;;9.50;7.30;;;;;;;18.82;93.50;100661.45;5163074;55;1140779;-74
2023/09/18 01:33:22;;;;;;;10.63;7.50;;;;;;;18.83;93.58;100664.47;5065763;57;1138642;-75
2023/09/18 01:38:29;;;;;;;11.00;8.35;;;;;;;18.69;92.91;100659.80;5078181;56;1140493;-76
2023/09/18 01:43:35;;;;;;;8.78;7.53;;;;;;;18.56;94.06;100653.58;5078053;56;1140869;-75
2023/09/18 01:48:47;;;;;;;7.38;6.58;;;;;;;18.60;95.22;100653.62;5021473;56;1139086;-77
2023/09/18 01:53:54;;;;;;;16.50;7.47;;;;;;;18.61;94.57;100649.94;5010112;56;1138989;-76
2023/09/18 01:59:00;;;;;;;9.53;7.40;;;;;;;18.55;94.92;100644.36;5066344;56;1141025;-75
2023/09/18 02:04:06;;;;;;;14.33;8.10;;;;;;;18.54;95.37;100643.53;5098421;56;1139043;-75
2023/09/18 02:09:12;;;;;;;10.05;8.50;;;;;;;18.58;96.30;100633.31;5078428;56;1140756;-75
2023/09/18 02:14:18;;;;;;;12.73;8.80;;;;;;;18.54;95.79;100630.63;5078120;56;1141137;-76
2023/09/18 02:19:23;;;;;;;8.78;7.87;;;;;;;18.36;95.58;100629.45;5032275;57;1140695;-75
2023/09/18 02:24:29;;;;;;;11.00;7.86;;;;;;;18.37;96.74;100632.97;5047964;57;1138687;-75
2023/09/18 02:29:35;;;;;;;10.72;8.90;;;;;;;18.37;96.41;100624.94;4994172;57;1140817;-75
2023/09/18 02:34:40;;;;;;;10.70;8.18;;;;;;;18.36;97.18;100621.92;5099555;56;1140602;-75
2023/09/18 02:39:46;;;;;;;12.02;8.92;;;;;;;18.35;96.78;100621.58;5109037;56;1140934;-75
2023/09/18 02:44:51;;;;;;;13.47;8.27;;;;;;;18.37;97.76;100617.74;5035868;56;1185155;-76
2023/09/18 02:49:57;;;;;;;11.80;9.20;;;;;;;18.39;97.45;100614.40;5056050;57;1242781;-75
2023/09/18 02:55:03;;;;;;;11.97;8.93;;;;;;;18.31;97.35;100606.87;5014986;56;1140709;-77
2023/09/18 03:00:10;;;;;;;15.20;10.10;;;;;;;18.23;97.89;100606.36;5092113;56;1227221;-75
2023/09/18 03:05:15;;;;;;;11.20;10.03;;;;;;;18.19;98.40;100595.64;5034591;57;1142938;-75
2023/09/18 03:10:21;;;;;;;18.05;10.43;;;;;;;18.15;99.06;100595.16;5015146;57;1143033;-76
2023/09/18 03:15:27;;;;;;;11.63;10.43;;;;;;;18.15;99.40;100589.80;5013140;57;1197721;-75
2023/09/18 03:20:33;;;;;;;11.35;9.35;;;;;;;18.12;99.51;100587.95;5107205;56;1143082;-75
2023/09/18 03:25:39;;;;;;;12.45;9.13;;;;;;;18.05;100.00;100574.88;5065467;56;1140981;-76
2023/09/18 03:30:44;;;;;;;11.25;10.00;;;;;;;18.00;100.00;100564.70;4969974;56;1242862;-76
2023/09/18 03:35:54;;;;;;;11.75;10.38;;;;;;;17.91;100.00;100554.47;5015284;56;1145313;-75
2023/09/18 03:41:02;;;;;;;14.13;10.47;;;;;;;17.87;100.00;100551.77;5014209;57;1145084;-75
2023/09/18 03:46:08;;;;;;;12.33;11.00;;;;;;;17.85;100.00;100551.13;5098310;56;1145616;-74
2023/09/18 03:51:20;;;;;;;13.03;11.70;;;;;;;17.83;100.00;100540.25;5070426;56;1259796;-74
2023/09/18 03:56:26;;;;;;;12.82;11.43;;;;;;;17.81;100.00;100544.42;5069473;56;1220852;-75
2023/09/18 04:01:31;;;;;;;14.03;11.68;;;;;;;17.77;100.00;100544.41;5008650;56;1242478;-74
2023/09/18 04:06:43;;;;;;;13.03;11.03;;;;;;;17.75;100.00;100545.57;5008743;57;1254670;-74
2023/09/18 04:11:49;;;;;;;14.18;11.36;;;;;;;17.80;100.00;100545.92;5036054;56;1244499;-75
2023/09/18 04:16:55;;;;;;;14.40;10.72;;;;;;;17.80;100.00;100541.41;5047571;56;1245438;-74
2023/09/18 04:22:00;;;;;;;21.23;11.40;;;;;;;17.81;100.00;100526.20;5026394;56;1260562;-75
2023/09/18 04:27:07;;;;;;;23.15;11.65;;;;;;;17.81;100.00;100524.86;5054600;56;1259289;-75
2023/09/18 04:32:12;;;;;;;23.62;10.95;;;;;;;17.78;100.00;100521.17;5081755;56;1259251;-75
2023/09/18 04:37:18;;;;;;;16.52;11.95;;;;;;;17.74;100.00;100526.01;5055985;56;1221014;-75
2023/09/18 04:42:24;;;;;;;12.98;11.53;;;;;;;17.72;100.00;100521.32;5044598;56;1248180;-74
2023/09/18 04:47:30;;;;;;;32.42;12.60;;;;;;;17.71;100.00;100508.14;4971943;57;1249411;-75
2023/09/18 04:52:37;;;;;;;15.08;10.78;;;;;;;17.74;100.00;100509.13;5054228;56;1244999;-75
2023/09/18 04:57:43;;;;;;;17.07;11.55;;;;;;;17.72;100.00;100509.81;4995644;57;1145156;-74
2023/09/18 05:02:49;;;;;;;14.78;10.25;;;;;;;17.70;100.00;100509.98;5089123;56;1145062;-74
2023/09/18 05:07:55;;;;;;;18.77;11.78;;;;;;;17.70;100.00;100506.47;4965908;56;1145156;-74
2023/09/18 05:13:02;;;;;;;17.83;11.97;;;;;;;17.72;100.00;100510.62;4914423;57;1145009;-74
2023/09/18 05:18:08;;;;;;;13.55;12.05;;;;;;;17.71;100.00;100502.79;4918564;56;1226640;-74
2023/09/18 05:23:14;;;;;;;17.53;12.07;;;;;;;17.69;100.00;100500.28;5009009;57;1145048;-73
2023/09/18 05:28:19;;;;;;;15.28;11.53;;;;;;;17.63;100.00;100496.88;5026694;56;1247575;-74
2023/09/18 05:33:25;;;;;;;12.97;11.43;;;;;;;17.64;100.00;100496.41;5016035;56;1186845;-74
2023/09/18 05:38:31;;;;;;;14.95;12.93;;;;;;;17.67;100.00;100502.78;5009640;57;1144932;-75
2023/09/18 05:43:37;;;;;;;17.13;10.87;;;;;;;17.74;100.00;100503.77;5077859;56;1145035;-74
2023/09/18 05:48:42;;;;;;;22.17;12.58;;;;;;;17.85;100.00;100504.81;4992692;57;1145079;-75
2023/09/18 05:53:48;;;;;;;14.85;11.48;;;;;;;18.22;100.00;100514.99;4970148;57;1145254;-75
2023/09/18 05:58:55;;;;;;;15.98;11.25;;;;;;;18.22;100.00;100514.99;5014959;57;1145178;-74
2023/09/18 06:04:03;;;;;;;20.02;11.88;;;;;;;18.49;100.00;100504.41;4995188;56;1145039;-75
2023/09/18 06:09:08;;;;;;;22.67;11.45;;;;;;;18.72;100.00;100494.69;5078003;56;1144941;-74
2023/09/18 06:14:13;;;;;;;16.57;10.32;;;;;;;18.96;100.00;100489.73;5014968;55;1145053;-74
2023/09/18 06:19:19;;;;;;;14.73;11.45;;;;;;;19.22;100.00;100484.94;4971503;57;1145027;-74
2023/09/18 06:24:25;;;;;;;14.18;9.68;;;;;;;19.45;100.00;100478.76;4951615;58;1144951;-74
2023/09/18 06:29:31;;;;;;;10.65;9.50;;;;;;;19.67;100.00;100482.01;5018472;57;1143033;-74
2023/09/18 06:34:36;;;;;;;15.72;9.95;;;;;;;19.90;100.00;100469.91;5076892;56;1142864;-74
2023/09/18 06:39:42;;;;;;;12.93;9.63;;;;;;;20.12;100.00;100459.66;5078658;56;1142697;-74
2023/09/18 06:44:48;;;;;;;11.33;9.48;;;;;;;20.27;100.00;100445.74;5037535;56;1143204;-76
2023/09/18 06:49:54;;;;;;;12.33;9.23;;;;;;;20.53;100.00;100441.29;4945785;58;1143085;-74
2023/09/18 06:54:59;;;;;;;13.18;8.75;;;;;;;20.81;100.00;100433.39;4949832;57;1142927;-74
2023/09/18 07:00:06;;;;;;;13.93;8.33;;;;;;;21.00;100.00;100432.81;5056178;57;1142950;-73
2023/09/18 07:05:12;;;;;;;11.12;8.58;;;;;;;21.17;100.00;100426.70;5014714;57;1142770;-74
2023/09/18 07:10:18;;;;;;;12.93;8.68;;;;;;;21.32;100.00;100429.38;5020694;56;1143144;-73
2023/09/18 07:15:24;;;;;;;14.85;8.73;;;;;;;21.48;100.00;100422.40;4932570;57;1143000;-74
2023/09/18 07:20:30;;;;;;;11.90;8.30;;;;;;;21.69;100.00;100426.41;5035134;57;1143301;-73
2023/09/18 07:25:38;;;;;;;9.43;8.45;;;;;;;21.99;100.00;100426.27;5050551;56;1142835;-73
2023/09/18 07:30:43;;;;;;;14.68;8.15;;;;;;;22.20;100.00;100422.20;5026983;56;1140633;-73
2023/09/18 07:35:51;;;;;;;14.47;8.23;;;;;;;22.43;100.00;100417.91;5098317;55;1142966;-74
2023/09/18 07:40:57;;;;;;;7.80;6.70;;;;;;;22.72;100.00;100409.55;5112053;56;1142870;-74
2023/09/18 07:46:03;;;;;;;10.28;6.85;;;;;;;22.95;100.00;100405.20;5012632;57;1140918;-74
2023/09/18 07:51:13;;;;;;;9.25;7.05;;;;;;;23.17;100.00;100402.38;5018083;57;1142954;-74
2023/09/18 07:56:19;;;;;;;12.18;6.78;;;;;;;23.40;99.66;100398.25;4993668;56;1141178;-73
2023/09/18 08:01:24;;;;;;;21.60;6.25;;;;;;;23.68;97.90;100386.50;4932144;57;1140880;-74
2023/09/18 08:06:30;;;;;;;9.05;6.05;;;;;;;23.99;97.99;100392.59;4929630;58;1140592;-74
2023/09/18 08:11:41;;;;;;;9.30;6.33;;;;;;;24.23;95.42;100385.71;5115074;55;1138758;-74
2023/09/18 08:16:43;;;;;;;6.50;5.75;;;;;;;24.38;91.37;100387.16;5097704;55;1138634;-74
2023/09/18 08:21:51;;;;;;;14.44;5.54;;;;;;;24.44;88.56;100378.73;5109077;55;1138836;-76
2023/09/18 08:26:57;;;;;;;5.47;4.83;;;;;;;24.64;87.25;100370.01;5083651;56;1141051;-74
2023/09/18 08:32:02;;;;;;;7.70;4.97;;;;;;;24.79;87.13;100373.27;5131926;56;1138948;-74
2023/09/18 08:37:09;;;;;;;5.58;4.42;;;;;;;24.92;85.75;100375.59;5108338;56;1138725;-74
2023/09/18 08:42:16;;;;;;;5.12;4.72;;;;;;;25.10;85.34;100373.04;5109178;56;1138699;-74
2023/09/18 08:47:22;;;;;;;10.00;4.90;;;;;;;25.25;82.59;100369.51;5126305;56;1138599;-74
2023/09/18 08:52:29;;;;;;;5.28;4.78;;;;;;;25.38;77.83;100364.00;5019272;56;1140867;-74
2023/09/18 08:57:36;;;;;;;9.45;6.10;;;;;;;25.47;80.10;100353.75;5076796;56;1138803;-74
2023/09/18 09:02:41;;;;;;;4.76;4.34;;;;;;;25.68;79.90;100349.84;5098792;55;1138787;-74
2023/09/18 09:07:47;;;;;;;12.40;5.03;;;;;;;25.80;75.67;100339.44;5078876;56;1138439;-74
2023/09/18 09:12:58;;;;;;;8.97;4.97;;;;;;;25.89;78.26;100336.73;5077855;56;1140752;-75
2023/09/18 09:18:08;;;;;;;5.10;4.53;;;;;;;26.03;75.84;100326.58;5014308;57;1138766;-74
2023/09/18 09:23:14;;;;;;;52.80;6.95;;;;;;;26.07;73.62;100319.66;4963350;57;1138876;-74
2023/09/18 09:28:31;;;;;;;4.92;4.45;;;;;;;26.08;76.10;100301.00;5077513;56;1140482;-74
2023/09/18 09:33:44;;;;;;;5.53;5.00;;;;;;;26.21;73.61;100292.70;5023249;56;1138924;-75
2023/09/18 09:38:44;;;;;;;11.40;5.22;;;;;;;26.34;74.39;100280.90;4936084;57;1138760;-75
2023/09/18 09:43:51;;;;;;;6.28;5.50;;;;;;;26.48;70.77;100287.81;5009016;56;1140811;-75
2023/09/18 09:49:05;;;;;;;5.00;4.60;;;;;;;26.57;73.37;100274.25;5025456;56;1138810;-75
2023/09/18 09:54:12;;;;;;;6.35;5.75;;;;;;;26.73;72.67;100265.99;5106886;56;1138854;-74
2023/09/18 09:59:18;;;;;;;5.37;4.87;;;;;;;26.96;69.23;100263.36;5098517;56;1138550;-74
2023/09/18 10:04:27;;;;;;;8.00;5.28;;;;;;;26.98;70.51;100260.95;5070066;57;1138800;-74
2023/09/18 10:09:35;;;;;;;5.22;4.85;;;;;;;27.01;68.46;100265.92;5118001;56;1139075;-75
2023/09/18 10:14:42;;;;;;;10.28;5.60;;;;;;;27.01;68.21;100261.84;5098702;56;1138743;-75
2023/09/18 10:20:19;;;;;;;7.15;5.37;;;;;;;27.09;66.47;100265.05;5098783;56;1141002;-74
2023/09/18 10:25:25;;;;;;;5.95;4.53;;;;;;;27.15;66.76;100251.08;5098526;56;1138981;-75
2023/09/18 10:30:37;;;;;;;6.50;4.97;;;;;;;27.22;65.18;100255.84;5105463;56;1138699;-74
2023/09/18 10:35:43;;;;;;;8.60;4.43;;;;;;;27.30;65.15;100244.13;5163774;56;1139134;-74
2023/09/18 10:40:50;;;;;;;7.00;4.67;;;;;;;27.37;63.00;100239.92;4973402;56;1138730;-74
2023/09/18 10:45:56;;;;;;;12.30;4.57;;;;;;;27.49;63.41;100237.23;5086588;56;1138789;-75
2023/09/18 10:51:05;;;;;;;7.40;4.90;;;;;;;27.68;61.06;100240.13;5051960;56;1140882;-75
2023/09/18 10:56:09;;;;;;;5.10;4.70;;;;;;;27.72;60.94;100239.12;5021174;56;1138935;-75
2023/09/18 11:01:14;;;;;;;5.83;4.40;;;;;;;27.77;60.98;100224.30;5026126;56;1138933;-75
2023/09/18 11:06:26;;;;;;;10.48;4.28;;;;;;;27.88;58.65;100221.55;5045216;56;1138811;-75
2023/09/18 11:11:29;;;;;;;4.72;4.40;;;;;;;27.88;60.04;100205.78;5033853;56;1140903;-74
2023/09/18 11:16:38;;;;;;;4.97;4.50;;;;;;;28.05;59.60;100213.48;5030997;56;1138704;-75
2023/09/18 11:21:45;;;;;;;12.98;5.70;;;;;;;28.19;59.90;100202.64;5168693;55;1138800;-75
2023/09/18 11:26:52;;;;;;;9.45;3.92;;;;;;;28.28;58.95;100198.46;5020732;56;1141129;-74
2023/09/18 11:31:59;;;;;;;5.15;4.60;;;;;;;28.21;58.14;100198.33;5106254;56;1138887;-75
2023/09/18 11:37:21;;;;;;;7.25;4.65;;;;;;;28.23;57.18;100205.18;5031817;57;1139039;-75
2023/09/18 11:42:28;;;;;;;7.97;4.15;;;;;;;28.26;57.21;100195.15;4994775;56;1138619;-74
2023/09/18 11:47:42;;;;;;;12.28;4.65;;;;;;;28.32;56.52;100199.63;5025643;56;1138549;-74
2023/09/18 11:52:42;;;;;;;6.78;4.17;;;;;;;28.36;56.38;100190.46;5059653;56;1140778;-75
2023/09/18 11:57:54;;;;;;;4.92;4.47;;;;;;;28.52;58.13;100191.03;5020802;57;1138538;-74
2023/09/18 12:03:03;;;;;;;5.10;4.22;;;;;;;28.65;56.50;100196.16;5020281;57;1139045;-75
2023/09/18 12:08:05;;;;;;;8.43;4.70;;;;;;;28.74;56.87;100187.58;5011390;56;1138981;-75
2023/09/18 12:13:11;;;;;;;6.85;4.53;;;;;;;28.68;55.66;100182.61;4992007;57;1138686;-75
2023/09/18 12:18:18;;;;;;;8.25;4.58;;;;;;;28.68;54.87;100158.94;4978652;56;1138808;-75
2023/09/18 12:23:24;;;;;;;5.65;4.42;;;;;;;28.76;54.48;100161.77;5008791;57;1138691;-74
2023/09/18 12:28:29;;;;;;;9.00;4.70;;;;;;;28.69;54.16;100145.63;5022164;56;1138702;-75
2023/09/18 12:33:39;;;;;;;4.60;4.17;;;;;;;28.77;53.87;100129.94;5026483;56;1138995;-75
2023/09/18 12:38:46;;;;;;;7.70;5.17;;;;;;;28.99;54.57;100114.00;5094964;56;1138974;-74
2023/09/18 12:43:52;;;;;;;6.58;4.85;;;;;;;29.08;51.81;100120.38;5046217;56;1139212;-74
2023/09/18 12:48:59;;;;;;;6.72;4.50;;;;;;;29.13;51.71;100105.48;4944769;57;1139002;-74
2023/09/18 12:54:06;;;;;;;4.45;4.12;;;;;;;29.18;51.91;100100.11;4963665;57;1138686;-74
2023/09/18 12:59:12;;;;;;;8.38;4.45;;;;;;;29.28;53.42;100086.09;4983962;57;1138719;-74
2023/09/18 13:04:18;;;;;;;8.05;6.58;;;;;;;29.47;52.46;100078.47;5014993;57;1138878;-74
2023/09/18 13:09:24;;;;;;;4.45;4.00;;;;;;;29.56;47.24;100066.03;5034636;57;1138835;-74
2023/09/18 13:14:29;;;;;;;9.78;4.75;;;;;;;29.43;47.47;100080.05;4977388;56;1138871;-74
2023/09/18 13:19:35;;;;;;;8.03;4.03;;;;;;;29.38;46.58;100089.47;4937599;57;1138859;-74
2023/09/18 13:24:41;;;;;;;24.95;12.75;;;;;;;29.37;46.00;100081.01;5086500;56;1138897;-74
2023/09/18 13:29:47;;;;;;;19.57;11.33;;;;;;;29.26;45.15;100069.70;5105230;56;1142771;-74
2023/09/18 13:34:52;;;;;;;5.60;5.10;;;;;;;29.13;45.92;100068.71;5099992;56;1142669;-74
2023/09/18 13:40:00;;;;;;;8.70;4.70;;;;;;;29.13;46.58;100052.38;5101683;56;1138771;-74
2023/09/18 13:45:07;;;;;;;13.32;4.53;;;;;;;29.15;48.19;100046.14;5125419;56;1138861;-74
2023/09/18 13:50:13;;;;;;;10.35;5.37;;;;;;;29.13;46.12;100031.41;5069611;56;1140796;-74
2023/09/18 13:55:19;;;;;;;8.55;6.12;;;;;;;29.11;46.74;100043.09;4966771;57;1140859;-74
2023/09/18 14:00:26;;;;;;;9.30;5.45;;;;;;;29.10;45.96;100035.99;5061669;56;1138998;-74
2023/09/18 14:05:33;;;;;;;4.80;4.40;;;;;;;29.02;44.89;100029.09;5008973;57;1139002;-74
2023/09/18 14:10:42;;;;;;;9.45;6.05;;;;;;;29.02;44.89;100029.09;4953712;57;1138774;-74
2023/09/18 14:15:50;;;;;;;15.15;4.92;;;;;;;29.00;46.51;100024.97;4963915;57;1138947;-74
2023/09/18 14:20:59;;;;;;;7.92;4.88;;;;;;;28.93;46.42;100023.78;5001174;57;1140495;-74
2023/09/18 14:26:05;;;;;;;6.17;5.57;;;;;;;28.79;46.87;100021.13;4983163;57;1138584;-74
2023/09/18 14:31:11;;;;;;;10.40;5.40;;;;;;;28.74;47.70;100014.22;5022958;56;1138836;-74
2023/09/18 14:36:16;;;;;;;9.35;6.62;;;;;;;28.77;48.20;100004.19;5038979;57;1140960;-73
2023/09/18 14:41:24;;;;;;;6.55;5.03;;;;;;;28.81;46.22;99996.39;5020707;56;1138911;-74
2023/09/18 14:46:33;;;;;;;9.23;5.90;;;;;;;28.77;46.09;99985.67;5021013;57;1136678;-74
2023/09/18 14:51:38;;;;;;;9.65;6.97;;;;;;;28.69;47.22;99980.14;5040199;57;1136794;-74
2023/09/18 14:56:45;;;;;;;8.28;6.37;;;;;;;28.74;47.23;99970.66;4990889;57;1136669;-74
2023/09/18 15:01:51;;;;;;;11.48;6.65;;;;;;;28.74;47.76;99963.86;4972562;57;1136876;-74
2023/09/18 15:06:58;;;;;;;5.70;5.20;;;;;;;28.80;47.76;99959.35;4974019;57;1138857;-75
2023/09/18 15:12:04;;;;;;;9.13;7.07;;;;;;;28.85;47.59;99960.80;4927155;57;1136814;-74
2023/09/18 15:17:11;;;;;;;9.75;6.65;;;;;;;28.87;47.61;99952.66;4967328;58;1136714;-75
2023/09/18 15:22:17;;;;;;;11.43;6.92;;;;;;;28.88;47.24;99943.93;4921907;58;1136730;-74
2023/09/18 15:27:22;;;;;;;5.65;5.03;;;;;;;28.82;48.14;99943.59;5011254;56;1138589;-74
2023/09/18 15:32:28;;;;;;;93.10;9.35;;;;;;;28.84;48.46;99940.91;4915225;57;1136727;-74
2023/09/18 15:37:35;;;;;;;16.70;10.60;;;;;;;28.83;48.71;99947.44;4996011;56;1138609;-74
2023/09/18 15:42:40;;;;;;;9.80;7.42;;;;;;;28.78;48.64;99950.58;4935077;57;1140733;-74
2023/09/18 15:47:46;;;;;;;12.00;6.70;;;;;;;28.66;50.04;99937.09;5013032;57;1136552;-74
2023/09/18 15:52:52;;;;;;;8.58;6.42;;;;;;;28.49;50.57;99941.75;4991690;57;1139074;-74
2023/09/18 15:57:58;;;;;;;10.95;6.50;;;;;;;28.33;51.53;99934.72;5033291;56;1136954;-75
2023/09/18 16:03:04;;;;;;;12.58;7.08;;;;;;;28.25;52.24;99938.41;5019981;56;1139028;-73
2023/09/18 16:08:11;;;;;;;13.80;6.55;;;;;;;28.15;52.57;99934.13;5040614;56;1138779;-73
2023/09/18 16:13:18;;;;;;;31.40;9.73;;;;;;;28.03;52.77;99926.06;4944185;58;1138926;-73
2023/09/18 16:18:23;;;;;;;13.72;6.97;;;;;;;27.90;53.46;99925.03;4990446;57;1138957;-73
2023/09/18 16:23:29;;;;;;;25.77;13.18;;;;;;;27.82;54.03;99927.61;4967345;56;1138651;-74
2023/09/18 16:28:35;;;;;;;13.40;9.28;;;;;;;27.78;54.35;99925.13;4916020;57;1140803;-74
2023/09/18 16:33:40;;;;;;;18.45;10.05;;;;;;;27.68;54.49;99921.38;5044333;56;1138540;-74
2023/09/18 16:38:46;;;;;;;24.47;9.33;;;;;;;27.60;54.77;99918.55;5029815;56;1140940;-74
2023/09/18 16:43:52;;;;;;;22.17;9.88;;;;;;;27.46;55.11;99918.00;5093499;56;1139219;-73
2023/09/18 16:48:57;;;;;;;18.13;9.77;;;;;;;27.40;55.50;99922.21;5037947;56;1138855;-74
2023/09/18 16:54:03;;;;;;;13.35;8.38;;;;;;;27.30;55.79;99917.42;5104103;56;1138904;-73
2023/09/18 16:59:09;;;;;;;13.55;8.28;;;;;;;27.17;56.06;99918.55;5036589;56;1138841;-73
2023/09/18 17:04:15;;;;;;;22.70;7.80;;;;;;;27.04;56.54;99908.51;5067325;56;1138825;-73
2023/09/18 17:09:20;;;;;;;10.93;7.50;;;;;;;26.92;57.03;99899.81;4991825;56;1139074;-72
2023/09/18 17:14:26;;;;;;;20.00;9.15;;;;;;;26.76;57.71;99901.92;4986078;57;1138804;-72
2023/09/18 17:19:31;;;;;;;12.58;8.48;;;;;;;26.65;58.26;99899.23;4930378;57;1138601;-72
2023/09/18 17:24:37;;;;;;;16.62;8.65;;;;;;;26.49;58.76;99883.17;5021731;56;1138603;-72
2023/09/18 17:29:43;;;;;;;14.43;8.50;;;;;;;26.38;59.47;99892.98;5057699;56;1138765;-72
2023/09/18 17:34:50;;;;;;;23.38;8.88;;;;;;;26.25;60.08;99891.31;5078554;56;1138636;-73
2023/09/18 17:39:55;;;;;;;13.50;8.78;;;;;;;26.13;60.55;99890.46;5078795;56;1138824;-72
2023/09/18 17:45:01;;;;;;;14.90;9.98;;;;;;;26.02;61.14;99891.82;5032684;56;1138869;-73
2023/09/18 17:50:07;;;;;;;14.35;9.45;;;;;;;25.89;62.09;99890.99;4996181;56;1138642;-73
2023/09/18 17:55:13;;;;;;;23.42;10.53;;;;;;;25.80;62.71;99892.94;4996447;56;1138893;-73
2023/09/18 18:00:19;;;;;;;13.55;9.48;;;;;;;25.71;63.35;99893.79;5026184;56;1141197;-73
2023/09/18 18:05:24;;;;;;;12.25;9.68;;;;;;;25.67;64.04;99899.89;4998197;56;1138651;-73
2023/09/18 18:10:30;;;;;;;12.20;9.03;;;;;;;25.58;65.07;99890.73;5010571;57;1138596;-73
2023/09/18 18:15:40;;;;;;;22.30;9.93;;;;;;;25.53;65.28;99886.53;5060861;56;1138604;-72
2023/09/18 18:20:46;;;;;;;11.08;8.15;;;;;;;25.50;65.96;99886.19;4947845;56;1138711;-73
2023/09/18 18:25:53;;;;;;;21.05;8.75;;;;;;;25.51;66.25;99883.78;4987138;57;1138935;-73
2023/09/18 18:30:58;;;;;;;13.10;8.60;;;;;;;25.49;66.71;99881.30;5000985;56;1138725;-74
2023/09/18 18:36:04;;;;;;;15.53;9.35;;;;;;;25.51;66.82;99884.58;4956762;56;1138688;-73
2023/09/18 18:41:10;;;;;;;22.73;11.97;;;;;;;25.50;66.89;99874.00;4989145;57;1138690;-73
2023/09/18 18:46:15;;;;;;;22.77;10.70;;;;;;;25.46;67.42;99882.28;4998554;56;1140927;-73
2023/09/18 18:51:22;;;;;;;26.15;11.18;;;;;;;25.32;67.70;99871.36;4933117;58;1141133;-74
2023/09/18 18:56:28;;;;;;;16.62;9.93;;;;;;;25.23;68.31;99870.31;5024177;56;1140913;-73
2023/09/18 19:01:34;;;;;;;13.50;10.45;;;;;;;25.13;69.17;99859.76;5082526;56;1138795;-74
2023/09/18 19:06:40;;;;;;;17.40;10.28;;;;;;;25.05;69.32;99858.22;5002334;57;1140636;-74
2023/09/18 19:11:49;;;;;;;15.03;9.50;;;;;;;25.01;69.68;99861.07;5042607;56;1140711;-74
2023/09/18 19:16:53;;;;;;;15.65;10.15;;;;;;;24.96;70.23;99856.03;4974956;57;1138839;-75
2023/09/18 19:21:59;;;;;;;13.33;9.83;;;;;;;24.94;70.27;99850.02;5100898;56;1140912;-73
2023/09/18 19:27:04;;;;;;;17.57;10.23;;;;;;;24.92;70.81;99843.45;5012377;57;1138677;-74
2023/09/18 19:32:10;;;;;;;13.77;10.53;;;;;;;24.85;71.22;99840.85;4974408;56;1140838;-74
2023/09/18 19:37:16;;;;;;;15.88;10.28;;;;;;;24.74;71.40;99840.28;4955527;58;1140915;-74
2023/09/18 19:42:22;;;;;;;15.13;9.80;;;;;;;24.66;71.76;99837.88;5003461;57;1140801;-74
2023/09/18 19:47:27;;;;;;;16.02;10.05;;;;;;;24.58;72.29;99836.84;5049203;56;1139120;-75
2023/09/18 19:52:33;;;;;;;18.45;11.50;;;;;;;24.54;72.48;99827.00;5033574;56;1140800;-74
2023/09/18 19:57:41;;;;;;;15.00;11.15;;;;;;;24.48;73.07;99836.00;5013706;57;1140763;-74
2023/09/18 20:02:50;;;;;;;16.17;11.35;;;;;;;24.39;73.50;99824.38;4984844;57;1140859;-72
2023/09/18 20:07:55;;;;;;;13.03;10.93;;;;;;;24.30;73.86;99811.67;4956856;57;1140893;-73
2023/09/18 20:13:21;;;;;;;17.47;11.67;;;;;;;24.24;74.25;99808.53;5077070;56;1141050;-74
2023/09/18 20:18:27;;;;;;;18.75;12.58;;;;;;;24.19;74.75;99805.64;5075350;56;1141002;-73
2023/09/18 20:23:32;;;;;;;15.18;11.30;;;;;;;24.17;75.03;99804.52;5043528;56;1140860;-74
2023/09/18 20:28:38;;;;;;;23.52;13.15;;;;;;;24.13;75.24;99797.93;4993609;56;1140819;-74
2023/09/18 20:33:43;;;;;;;24.95;14.65;;;;;;;24.04;75.98;99795.73;4975362;57;1140830;-74
2023/09/18 20:38:50;;;;;;;18.05;13.43;;;;;;;23.99;75.84;99798.27;5095171;56;1140920;-73
2023/09/18 20:43:55;;;;;;;18.33;13.10;;;;;;;23.93;76.33;99778.40;5105251;56;1140967;-73
2023/09/18 20:49:08;;;;;;;31.97;13.23;;;;;;;23.90;76.79;99782.06;5048720;56;1140730;-74
2023/09/18 20:54:14;;;;;;;20.23;13.95;;;;;;;23.85;76.78;99780.84;5015248;57;1140801;-73
2023/09/18 20:59:20;;;;;;;17.10;13.40;;;;;;;23.85;77.16;99779.50;4924814;58;1141221;-73
2023/09/18 21:04:26;;;;;;;18.87;13.40;;;;;;;23.82;77.11;99775.09;5094642;56;1140909;-73
2023/09/18 21:09:33;;;;;;;18.40;13.83;;;;;;;23.80;77.19;99774.48;5097021;56;1140817;-73
2023/09/18 21:15:15;;;;;;;14.25;12.90;;;;;;;23.78;77.20;99776.05;5153384;55;1140777;-73
2023/09/18 21:20:20;;;;;;;23.52;13.95;;;;;;;23.76;77.28;99775.45;5078744;56;1140828;-73
2023/09/18 21:25:26;;;;;;;21.17;14.80;;;;;;;23.74;77.44;99782.11;5098087;57;1140781;-73
2023/09/18 21:30:32;;;;;;;15.45;13.75;;;;;;;23.72;77.87;99782.85;5078524;56;1140879;-74
2023/09/18 21:35:39;;;;;;;17.25;13.88;;;;;;;23.66;77.95;99782.41;5078810;56;1141019;-73
2023/09/18 21:40:45;;;;;;;16.48;14.23;;;;;;;23.63;78.14;99786.89;5049899;56;1140908;-73
2023/09/18 21:45:52;;;;;;;19.05;14.43;;;;;;;23.65;78.30;99786.16;4995019;57;1140670;-73
2023/09/18 21:50:59;;;;;;;17.32;13.72;;;;;;;23.64;78.41;99783.98;4994166;57;1140940;-72
2023/09/18 21:56:06;;;;;;;15.63;14.03;;;;;;;23.58;78.62;99785.38;5081738;56;1140959;-75
2023/09/18 22:01:12;;;;;;;19.65;15.48;;;;;;;23.53;78.95;99790.08;4984312;57;1140764;-74
2023/09/18 22:06:18;;;;;;;18.47;13.53;;;;;;;23.48;79.75;99793.95;4994109;57;1140983;-72
2023/09/18 22:11:25;;;;;;;18.98;13.58;;;;;;;23.39;80.08;99789.86;5172803;55;1140920;-73
2023/09/18 22:16:31;;;;;;;15.53;13.88;;;;;;;23.30;80.87;99796.06;5109607;56;1140760;-74
2023/09/18 22:21:36;;;;;;;19.42;13.18;;;;;;;23.23;81.72;99795.27;5021764;56;1140921;-73
2023/09/18 22:26:43;;;;;;;15.90;13.90;;;;;;;23.15;82.42;99803.12;5118690;55;1140787;-73
2023/09/18 22:31:49;;;;;;;15.18;11.90;;;;;;;23.08;83.08;99809.59;5185849;55;1141020;-74
2023/09/18 22:36:54;;;;;;;14.95;12.85;;;;;;;23.03;84.87;99815.66;5099201;56;1140968;-74
2023/09/18 22:48:22;;;;;;;21.63;11.23;;;;;;;22.85;87.01;99820.11;5185659;55;1140991;-73
2023/09/18 22:53:26;;;;;;;12.23;8.28;;;;;;;22.67;88.95;99827.00;5086543;56;1141069;-73
2023/09/18 22:58:32;;;;;;;7.40;6.25;;;;;;;22.51;90.99;99836.09;4953281;57;1138872;-74
2023/09/18 23:03:38;;;;;;;10.20;6.25;;;;;;;22.34;93.16;99832.52;5058804;57;1136742;-73